Latest Weather Observations for Inner Beacon

IDQ60801

Issued at 10:02 am EST Sunday 1 February 2015 (issued every 30 minutes, with the page automatically refreshed every 10 minutes)

About weather observations | Map of weather stations | Latest weather observations for QLD | Other Formats
Station Details ID: 040926 Name: INNER RECIPROCAL MARKER Lat: -27.26 Lon: 153.24 Height: 20.0 m
Data from the previous 72 hours. | See also: Recent months for locations in Queensland
Date/Time
EST
Temp
°C
App
Temp
°C
Dew
Point
Rel
Hum
%
Delta-T
°C
Wind Press
QNH
hPa
Press
MSL
hPa
Rain
since 9 am
mm
Dir
 
Spd
km/h
Gust
km/h
Spd
kts
Gust
kts
01/10:00am - - - - - S 4 6 2 3 - - -
01/09:30am - - - - - SSW 4 6 2 3 - - -
01/09:00am - - - - - SSW 6 7 3 4 - - -
01/08:30am - - - - - SW 7 9 4 5 - - -
01/08:00am - - - - - SSW 9 11 5 6 - - -
01/07:30am - - - - - SSW 9 11 5 6 - - -
01/07:00am - - - - - SSW 7 9 4 5 - - -
01/06:30am - - - - - SSW 7 9 4 5 - - -
01/06:00am - - - - - SSW 9 11 5 6 - - -
01/05:30am - - - - - SSW 7 9 4 5 - - -
01/05:00am - - - - - SSW 11 15 6 8 - - -
01/04:30am - - - - - WSW 11 15 6 8 - - -
01/04:00am - - - - - NNW 15 17 8 9 - - -
01/03:30am - - - - - NNW 19 22 10 12 - - -
01/03:00am - - - - - NNW 24 28 13 15 - - -
01/02:30am - - - - - NNW 30 33 16 18 - - -
01/02:00am - - - - - NNW 28 33 15 18 - - -
01/01:30am - - - - - NNW 30 35 16 19 - - -
01/01:00am - - - - - NNW 26 32 14 17 - - -
01/12:30am - - - - - NNW 26 30 14 16 - - -
01/12:00am - - - - - N 30 37 16 20 - - -
 
Date/Time
EST
Temp
°C
App
Temp
°C
Dew
Point
Rel
Hum
%
Delta-T
°C
Wind Press
QNH
hPa
Press
MSL
hPa
Rain
since 9 am
mm
Dir
 
Spd
km/h
Gust
km/h
Spd
kts
Gust
kts
31/11:30pm - - - - - N 30 33 16 18 - - -
31/11:00pm - - - - - N 32 37 17 20 - - -
31/10:30pm - - - - - N 28 35 15 19 - - -
31/10:00pm - - - - - NNE 28 33 15 18 - - -
31/09:30pm - - - - - NNE 22 28 12 15 - - -
31/09:00pm - - - - - NE 22 28 12 15 - - -
31/08:30pm - - - - - NE 24 28 13 15 - - -
31/08:00pm - - - - - NE 33 41 18 22 - - -
31/07:30pm - - - - - NE 39 44 21 24 - - -
31/07:00pm - - - - - ENE 33 43 18 23 - - -
31/06:58pm - - - - - ENE 32 43 17 23 - - -
31/06:30pm - - - - - ESE 22 32 12 17 - - -
31/06:06pm - - - - - SE 43 56 23 30 - - -
31/06:00pm - - - - - SSE 44 67 24 36 - - -
31/05:55pm - - - - - S 54 80 29 43 - - -
31/05:48pm - - - - - SSE 37 80 20 43 - - -
31/05:47pm - - - - - SE 32 67 17 36 - - -
31/05:45pm - - - - - ESE 22 61 12 33 - - -
31/05:30pm - - - - - NNE 28 33 15 18 - - -
31/05:00pm - - - - - NNE 35 41 19 22 - - -
31/04:30pm - - - - - NNE 37 43 20 23 - - -
31/04:00pm - - - - - NNE 39 44 21 24 - - -
31/03:30pm - - - - - NNE 39 46 21 25 - - -
31/03:00pm - - - - - NNE 35 41 19 22 - - -
31/02:30pm - - - - - NNE 35 39 19 21 - - -
31/02:00pm - - - - - NNE 33 37 18 20 - - -
31/01:30pm - - - - - NNE 28 32 15 17 - - -
31/01:00pm - - - - - NNE 24 26 13 14 - - -
31/12:30pm - - - - - NNE 22 26 12 14 - - -
31/12:00pm - - - - - NNE 17 20 9 11 - - -
31/11:30am - - - - - NNE 15 17 8 9 - - -
31/11:00am - - - - - NNE 9 13 5 7 - - -
31/10:30am - - - - - N 7 13 4 7 - - -
31/10:00am - - - - - NNW 7 9 4 5 - - -
31/09:30am - - - - - NNW 7 9 4 5 - - -
31/09:00am - - - - - N 7 9 4 5 - - -
31/08:30am - - - - - N 4 7 2 4 - - -
31/08:00am - - - - - NNW 6 9 3 5 - - -
31/07:30am - - - - - N 7 9 4 5 - - -
31/07:00am - - - - - NW 6 6 3 3 - - -
31/06:30am - - - - - WNW 7 9 4 5 - - -
31/06:00am - - - - - WNW 9 11 5 6 - - -
31/05:30am - - - - - NW 11 15 6 8 - - -
31/05:00am - - - - - NW 13 17 7 9 - - -
31/04:30am - - - - - NW 17 22 9 12 - - -
31/04:00am - - - - - NNW 24 28 13 15 - - -
31/03:30am - - - - - NNW 24 30 13 16 - - -
31/03:00am - - - - - NNW 28 33 15 18 - - -
31/02:30am - - - - - NNW 28 35 15 19 - - -
31/02:00am - - - - - NNW 30 33 16 18 - - -
31/01:30am - - - - - NNW 28 33 15 18 - - -
31/01:00am - - - - - NNW 32 37 17 20 - - -
31/12:30am - - - - - NNW 32 35 17 19 - - -
31/12:00am - - - - - NNW 32 37 17 20 - - -
 
Date/Time
EST
Temp
°C
App
Temp
°C
Dew
Point
Rel
Hum
%
Delta-T
°C
Wind Press
QNH
hPa
Press
MSL
hPa
Rain
since 9 am
mm
Dir
 
Spd
km/h
Gust
km/h
Spd
kts
Gust
kts
30/11:30pm - - - - - NNW 30 33 16 18 - - -
30/11:00pm - - - - - NNW 30 33 16 18 - - -
30/10:30pm - - - - - NNW 26 32 14 17 - - -
30/10:00pm - - - - - NNW 26 30 14 16 - - -
30/09:30pm - - - - - N 28 32 15 17 - - -
30/09:00pm - - - - - N 26 30 14 16 - - -
30/08:30pm - - - - - N 28 33 15 18 - - -
30/08:00pm - - - - - N 28 32 15 17 - - -
30/07:30pm - - - - - N 26 32 14 17 - - -
30/07:00pm - - - - - N 26 30 14 16 - - -
30/06:30pm - - - - - N 28 35 15 19 - - -
30/06:00pm - - - - - NNE 30 35 16 19 - - -
30/05:30pm - - - - - N 28 33 15 18 - - -
30/05:00pm - - - - - N 30 33 16 18 - - -
30/04:30pm - - - - - N 28 32 15 17 - - -
30/04:00pm - - - - - N 28 33 15 18 - - -
30/03:30pm - - - - - N 28 32 15 17 - - -
30/03:00pm - - - - - N 26 30 14 16 - - -
30/02:30pm - - - - - N 26 30 14 16 - - -
30/02:00pm - - - - - N 22 28 12 15 - - -
30/01:30pm - - - - - N 22 26 12 14 - - -
30/01:00pm - - - - - N 20 26 11 14 - - -
30/12:30pm - - - - - N 17 20 9 11 - - -
30/12:00pm - - - - - NNE 17 20 9 11 - - -
30/11:30am - - - - - N 15 20 8 11 - - -
30/11:00am - - - - - N 6 7 3 4 - - -
30/10:30am - - - - - NW 4 6 2 3 - - -
30/10:00am - - - - - W 4 6 2 3 - - -
30/09:30am - - - - - SSW 7 9 4 5 - - -
30/09:00am - - - - - SSW 9 11 5 6 - - -
30/08:30am - - - - - S 6 9 3 5 - - -
30/08:00am - - - - - S 11 13 6 7 - - -
30/07:30am - - - - - S 11 15 6 8 - - -
30/07:00am - - - - - S 15 19 8 10 - - -
30/06:30am - - - - - SSE 15 22 8 12 - - -
30/06:00am - - - - - SSE 7 11 4 6 - - -
30/05:30am - - - - - SE 13 15 7 8 - - -
30/05:00am - - - - - SE 15 19 8 10 - - -
30/04:30am - - - - - ESE 19 22 10 12 - - -
30/04:00am - - - - - ESE 19 24 10 13 - - -
30/03:30am - - - - - ESE 22 28 12 15 - - -
30/03:00am - - - - - ESE 26 30 14 16 - - -
30/02:30am - - - - - SE 28 35 15 19 - - -
30/02:00am - - - - - SSE 33 39 18 21 - - -
30/01:30am - - - - - ESE 22 28 12 15 - - -
30/01:00am - - - - - ESE 17 33 9 18 - - -
30/12:30am - - - - - ESE 22 28 12 15 - - -
30/12:00am - - - - - E 24 30 13 16 - - -
 
Date/Time
EST
Temp
°C
App
Temp
°C
Dew
Point
Rel
Hum
%
Delta-T
°C
Wind Press
QNH
hPa
Press
MSL
hPa
Rain
since 9 am
mm
Dir
 
Spd
km/h
Gust
km/h
Spd
kts
Gust
kts
29/11:30pm - - - - - E 20 28 11 15 - - -
29/11:00pm - - - - - E 22 28 12 15 - - -
29/10:30pm - - - - - E 20 24 11 13 - - -
29/10:00pm - - - - - E 19 24 10 13 - - -
29/09:30pm - - - - - ESE 15 19 8 10 - - -
29/09:00pm - - - - - ESE 28 33 15 18 - - -
29/08:30pm - - - - - SE 20 24 11 13 - - -
29/08:00pm - - - - - ESE 19 24 10 13 - - -
29/07:30pm - - - - - ESE 17 24 9 13 - - -
29/07:00pm - - - - - ESE 20 24 11 13 - - -
29/06:30pm - - - - - ESE 22 28 12 15 - - -
29/06:00pm - - - - - ESE 20 26 11 14 - - -
29/05:30pm - - - - - ESE 24 32 13 17 - - -
29/05:00pm - - - - - ESE 28 35 15 19 - - -
29/04:30pm - - - - - ESE 28 35 15 19 - - -
29/04:00pm - - - - - ESE 28 33 15 18 - - -
29/03:30pm - - - - - ESE 26 33 14 18 - - -
29/03:00pm - - - - - ESE 26 32 14 17 - - -
29/02:30pm - - - - - ESE 24 32 13 17 - - -
29/02:00pm - - - - - SE 26 30 14 16 - - -
29/01:30pm - - - - - SE 26 32 14 17 - - -
29/01:00pm - - - - - SE 30 35 16 19 - - -
29/12:30pm - - - - - SE 28 33 15 18 - - -
29/12:00pm - - - - - SSE 28 33 15 18 - - -
29/11:30am - - - - - SSE 30 37 16 20 - - -
29/11:00am - - - - - SSE 32 37 17 20 - - -
29/10:30am - - - - - SSE 32 37 17 20 - - -

Other Formats:

Comma delimited format used in spreadsheet applications
http://www.bom.gov.au/fwo/IDQ60801/IDQ60801.94590.axf

JavaScript Object Notation format (JSON) in row-major order
http://www.bom.gov.au/fwo/IDQ60801/IDQ60801.94590.json